createdAt,value
2022-08-09T00:03:10.755Z,17.30
2022-08-09T00:07:13.794Z,17.20
2022-08-09T00:11:24.679Z,17.20
2022-08-09T00:15:57.901Z,17.10
2022-08-09T00:19:52.755Z,17.00
2022-08-09T00:23:59.658Z,17.00
2022-08-09T00:28:04.042Z,16.90
2022-08-09T00:32:07.340Z,16.70
2022-08-09T00:36:11.782Z,16.50
2022-08-09T00:40:17.552Z,16.30
2022-08-09T00:44:26.952Z,16.30
2022-08-09T00:48:30.671Z,16.20
2022-08-09T00:52:38.121Z,16.20
2022-08-09T00:56:41.078Z,16.20
2022-08-09T01:00:45.379Z,16.30
2022-08-09T01:04:57.238Z,16.30
2022-08-09T01:09:09.633Z,16.30
2022-08-09T01:13:18.031Z,16.30
2022-08-09T01:17:30.722Z,16.10
2022-08-09T01:21:52.353Z,15.70
2022-08-09T01:26:12.370Z,15.70
2022-08-09T01:30:28.473Z,15.60
2022-08-09T01:34:40.085Z,15.70
2022-08-09T01:38:48.297Z,15.70
2022-08-09T01:42:52.171Z,15.80
2022-08-09T01:46:57.310Z,15.80
2022-08-09T01:51:03.994Z,15.80
2022-08-09T01:55:09.030Z,15.80
2022-08-09T01:59:16.667Z,15.70
2022-08-09T02:03:24.382Z,15.70
2022-08-09T02:08:41.014Z,15.60
2022-08-09T02:11:51.063Z,15.60
2022-08-09T02:15:56.381Z,15.30
2022-08-09T02:20:01.174Z,15.10
2022-08-09T02:24:08.852Z,15.10
2022-08-09T02:28:28.250Z,15.30
2022-08-09T02:32:34.464Z,15.40
2022-08-09T02:36:42.055Z,15.30
2022-08-09T02:40:46.382Z,15.10
2022-08-09T02:44:55.362Z,15.30
2022-08-09T02:49:05.646Z,15.30
2022-08-09T02:53:25.702Z,15.30
2022-08-09T02:57:31.443Z,15.20
2022-08-09T03:02:06.319Z,15.10
2022-08-09T03:06:08.631Z,15.00
2022-08-09T03:10:14.327Z,14.90
2022-08-09T03:14:28.090Z,14.80
2022-08-09T03:18:32.214Z,14.80
2022-08-09T03:22:41.400Z,14.90
2022-08-09T03:26:48.662Z,14.80
2022-08-09T03:30:57.323Z,14.10
2022-08-09T03:35:02.254Z,13.80
2022-08-09T03:39:07.757Z,13.70
2022-08-09T03:43:12.146Z,13.90
2022-08-09T03:47:16.432Z,14.10
2022-08-09T03:51:54.124Z,14.00
2022-08-09T03:55:44.039Z,13.70
2022-08-09T03:59:54.932Z,13.70
2022-08-09T04:04:02.119Z,13.80
2022-08-09T04:08:07.559Z,14.00
2022-08-09T04:12:34.742Z,14.10
2022-08-09T04:16:39.010Z,14.20
2022-08-09T04:20:42.054Z,14.00
2022-08-09T04:24:47.246Z,14.00
2022-08-09T04:28:50.005Z,14.00
2022-08-09T04:32:54.463Z,14.10
2022-08-09T04:36:57.218Z,14.30
2022-08-09T04:40:59.978Z,14.50
2022-08-09T04:45:03.100Z,14.60
2022-08-09T04:49:07.790Z,14.70
2022-08-09T04:53:13.222Z,14.80
2022-08-09T04:57:16.587Z,14.80
2022-08-09T05:01:27.144Z,14.90
2022-08-09T05:05:51.919Z,15.00
2022-08-09T05:09:54.455Z,15.10
2022-08-09T05:13:58.611Z,15.30
2022-08-09T05:18:37.559Z,15.30
2022-08-09T05:22:33.601Z,15.50
2022-08-09T05:26:45.461Z,15.70
2022-08-09T05:30:51.617Z,15.90
2022-08-09T05:34:54.836Z,16.30
2022-08-09T05:39:02.612Z,17.00
2022-08-09T05:43:11.822Z,17.20
2022-08-09T05:47:14.546Z,17.50
2022-08-09T05:51:42.996Z,18.40
2022-08-09T05:55:41.394Z,19.30
2022-08-09T05:59:44.334Z,20.60
2022-08-09T06:03:54.740Z,23.20
2022-08-09T06:08:05.252Z,24.30
2022-08-09T06:12:12.478Z,28.60
2022-08-09T06:16:16.361Z,27.00
2022-08-09T06:20:19.975Z,27.60
2022-08-09T06:24:22.752Z,27.80
2022-08-09T06:28:27.475Z,30.60
2022-08-09T06:33:13.637Z,32.80
2022-08-09T06:36:59.767Z,30.20
2022-08-09T06:41:03.535Z,29.50
2022-08-09T06:45:20.388Z,27.80
2022-08-09T06:50:11.515Z,25.60
2022-08-09T06:53:54.862Z,25.10
2022-08-09T06:58:03.198Z,24.40
2022-08-09T07:02:08.285Z,24.10
2022-08-09T07:06:11.708Z,23.10
2022-08-09T07:10:24.547Z,24.10
2022-08-09T07:14:32.650Z,25.40
2022-08-09T07:18:36.792Z,25.60
2022-08-09T07:22:46.394Z,24.90
2022-08-09T07:26:55.107Z,24.40
2022-08-09T07:30:57.999Z,23.70
2022-08-09T07:35:08.077Z,23.90
2022-08-09T07:39:19.761Z,23.70
2022-08-09T07:43:29.136Z,23.60
2022-08-09T07:47:32.159Z,24.10
2022-08-09T07:52:06.123Z,24.00
2022-08-09T07:56:26.748Z,24.50
2022-08-09T08:00:35.882Z,24.30
2022-08-09T08:04:40.817Z,25.30
2022-08-09T08:09:03.297Z,25.80
2022-08-09T08:13:10.421Z,25.60
2022-08-09T08:17:14.142Z,24.00
2022-08-09T08:21:39.699Z,24.50
2022-08-09T08:25:46.241Z,24.80
2022-08-09T08:29:52.490Z,25.30
2022-08-09T08:33:56.262Z,25.20
2022-08-09T08:38:04.738Z,25.20
2022-08-09T08:42:16.592Z,25.00
2022-08-09T08:46:32.405Z,25.70
2022-08-09T08:50:36.554Z,26.20
2022-08-09T08:54:41.356Z,25.60
2022-08-09T08:58:46.663Z,27.30
2022-08-09T09:02:52.501Z,26.90
2022-08-09T09:06:58.739Z,26.90
2022-08-09T09:11:03.994Z,26.70
2022-08-09T09:15:09.121Z,28.10
2022-08-09T09:19:36.990Z,28.40
2022-08-09T09:23:49.789Z,27.60
2022-08-09T09:28:06.087Z,28.50
2022-08-09T09:32:15.916Z,26.90
2022-08-09T09:36:20.174Z,28.10
2022-08-09T09:40:42.119Z,28.20
2022-08-09T09:44:57.475Z,29.40
2022-08-09T09:49:04.747Z,28.40
2022-08-09T09:53:16.128Z,29.50
2022-08-09T09:58:03.221Z,29.40
2022-08-09T10:01:44.051Z,29.90
2022-08-09T10:06:04.734Z,29.00
2022-08-09T10:10:08.744Z,29.80
2022-08-09T10:14:27.418Z,29.20
2022-08-09T10:18:33.743Z,28.10
2022-08-09T10:22:39.402Z,28.70
2022-08-09T10:26:43.923Z,28.10
2022-08-09T10:35:13.229Z,29.40
2022-08-09T10:39:19.531Z,29.80
2022-08-09T10:43:22.716Z,28.70
2022-08-09T10:48:19.301Z,30.00
2022-08-09T10:52:20.203Z,30.60
2022-08-09T10:56:27.652Z,28.90
2022-08-09T11:00:35.269Z,28.70
2022-08-09T11:04:50.452Z,30.10
2022-08-09T11:09:15.529Z,30.00
2022-08-09T11:13:53.709Z,28.90
2022-08-09T11:17:45.607Z,30.30
2022-08-09T11:21:55.107Z,30.80
2022-08-09T11:26:28.404Z,29.10
2022-08-09T11:30:37.908Z,29.00
2022-08-09T11:34:44.615Z,28.80
2022-08-09T11:39:02.195Z,30.40
2022-08-09T11:43:05.059Z,31.10
2022-08-09T11:47:11.064Z,29.10
2022-08-09T11:53:00.698Z,29.50
2022-08-09T11:55:51.929Z,29.50
2022-08-09T11:59:57.471Z,32.00
2022-08-09T12:04:03.336Z,34.10
2022-08-09T12:08:12.395Z,33.00
2022-08-09T12:12:29.069Z,32.80
2022-08-09T12:16:39.947Z,33.30
2022-08-09T12:20:44.939Z,35.50
2022-08-09T12:24:51.007Z,37.10
2022-08-09T12:28:59.207Z,39.70
2022-08-09T12:33:20.807Z,44.20
2022-08-09T12:37:33.534Z,47.20
2022-08-09T12:41:47.429Z,44.50
2022-08-09T12:45:59.655Z,39.00
2022-08-09T12:50:20.010Z,40.10
2022-08-09T12:54:28.142Z,39.90
2022-08-09T12:58:34.343Z,43.00
2022-08-09T13:02:53.418Z,48.40
2022-08-09T13:06:57.637Z,49.10
2022-08-09T13:11:22.629Z,49.00
2022-08-09T13:15:25.718Z,45.60
2022-08-09T13:20:08.284Z,36.90
2022-08-09T13:24:16.311Z,36.70
2022-08-09T13:28:34.243Z,40.10
2022-08-09T13:32:48.541Z,38.90
2022-08-09T13:36:52.126Z,41.60
2022-08-09T13:41:53.917Z,41.80
2022-08-09T13:45:31.918Z,37.60
2022-08-09T13:49:38.138Z,35.20
2022-08-09T13:53:44.650Z,38.40
2022-08-09T13:57:56.195Z,35.00
2022-08-09T14:02:02.594Z,34.10
2022-08-09T14:06:14.678Z,35.10
2022-08-09T14:10:46.328Z,32.60
2022-08-09T14:14:53.767Z,30.20
2022-08-09T14:18:59.497Z,29.70
2022-08-09T14:23:02.499Z,30.60
2022-08-09T14:27:20.378Z,30.60
2022-08-09T14:31:23.697Z,28.60
2022-08-09T14:35:52.040Z,29.40
2022-08-09T14:39:55.961Z,28.50
2022-08-09T14:43:59.780Z,29.60
2022-08-09T14:48:05.948Z,29.50
2022-08-09T14:52:10.123Z,29.40
2022-08-09T14:56:13.232Z,28.40
2022-08-09T15:00:16.397Z,28.10
2022-08-09T15:04:19.188Z,29.00
2022-08-09T15:08:23.898Z,28.40
2022-08-09T15:12:27.560Z,27.70
2022-08-09T15:16:31.339Z,27.50
2022-08-09T15:22:01.085Z,27.40
2022-08-09T15:24:58.733Z,28.40
2022-08-09T15:29:04.221Z,28.60
2022-08-09T15:33:07.759Z,27.80
2022-08-09T15:37:24.478Z,28.40
2022-08-09T15:41:44.952Z,28.70
2022-08-09T15:46:28.106Z,27.80
2022-08-09T15:50:16.655Z,26.90
2022-08-09T15:54:31.365Z,26.90
2022-08-09T15:58:38.893Z,27.00
2022-08-09T16:02:43.021Z,26.60
2022-08-09T16:06:56.693Z,26.50
2022-08-09T16:11:01.300Z,26.50
2022-08-09T16:16:11.518Z,26.90
2022-08-09T16:19:36.860Z,26.10
2022-08-09T16:23:55.614Z,25.90
2022-08-09T16:28:01.279Z,25.80
2022-08-09T16:32:12.598Z,26.10
2022-08-09T16:36:30.315Z,26.00
2022-08-09T16:40:40.863Z,25.70
2022-08-09T16:44:44.178Z,25.90
2022-08-09T16:48:53.240Z,25.80
2022-08-09T16:53:05.731Z,25.90
2022-08-09T16:57:08.654Z,25.60
2022-08-09T17:01:13.706Z,25.30
2022-08-09T17:05:20.050Z,25.70
2022-08-09T17:09:45.116Z,25.30
2022-08-09T17:13:45.694Z,25.40
2022-08-09T17:18:06.104Z,25.70
2022-08-09T17:22:10.218Z,25.50
2022-08-09T17:26:13.119Z,25.60
2022-08-09T17:30:20.571Z,25.60
2022-08-09T17:35:07.526Z,25.50
2022-08-09T17:38:57.836Z,25.30
2022-08-09T17:43:03.220Z,25.10
2022-08-09T17:47:27.902Z,25.10
2022-08-09T17:51:32.855Z,25.10
2022-08-09T17:55:48.515Z,25.00
2022-08-09T17:59:54.940Z,24.60
2022-08-09T18:04:14.768Z,24.60
2022-08-09T18:08:17.534Z,24.50
2022-08-09T18:12:40.207Z,24.40
2022-08-09T18:16:49.291Z,24.20
2022-08-09T18:21:17.716Z,24.20
2022-08-09T18:25:19.642Z,24.20
2022-08-09T18:30:38.594Z,24.10
2022-08-09T18:33:53.708Z,23.90
2022-08-09T18:37:56.510Z,23.90
2022-08-09T18:42:00.611Z,23.70
2022-08-09T18:46:51.089Z,23.50
2022-08-09T18:50:33.703Z,23.30
2022-08-09T18:54:36.621Z,23.30
2022-08-09T18:58:39.383Z,23.20
2022-08-09T19:02:43.603Z,23.10
2022-08-09T19:06:50.494Z,23.10
2022-08-09T19:10:54.124Z,23.00
2022-08-09T19:14:57.236Z,23.00
2022-08-09T19:19:01.392Z,22.90
2022-08-09T19:24:39.614Z,22.70
2022-08-09T19:27:47.831Z,22.60
2022-08-09T19:31:59.882Z,22.60
2022-08-09T19:36:05.013Z,22.50
2022-08-09T19:40:12.967Z,22.40
2022-08-09T19:44:22.853Z,22.40
2022-08-09T19:49:02.079Z,22.30
2022-08-09T19:52:52.257Z,22.20
2022-08-09T19:56:55.487Z,22.20
2022-08-09T20:00:58.520Z,22.20
2022-08-09T20:05:01.823Z,22.10
2022-08-09T20:09:44.909Z,22.10
2022-08-09T20:13:37.655Z,22.10
2022-08-09T20:17:41.488Z,22.10
2022-08-09T20:21:56.695Z,22.00
2022-08-09T20:26:04.037Z,21.80
2022-08-09T20:30:10.996Z,21.70
2022-08-09T20:34:15.531Z,21.70
2022-08-09T20:38:32.134Z,21.70
2022-08-09T20:42:53.143Z,21.60
2022-08-09T20:46:57.816Z,21.50
2022-08-09T20:51:03.073Z,21.40
2022-08-09T20:55:07.656Z,21.40
2022-08-09T20:59:17.176Z,21.30
2022-08-09T21:03:22.028Z,21.30
2022-08-09T21:07:30.203Z,21.10
2022-08-09T21:16:19.138Z,21.00
2022-08-09T21:20:26.352Z,20.90
2022-08-09T21:24:33.732Z,20.90
2022-08-09T21:28:37.005Z,20.90
2022-08-09T21:32:41.578Z,20.70
2022-08-09T21:36:55.320Z,20.70
2022-08-09T21:40:59.187Z,20.70
2022-08-09T21:45:02.112Z,20.60
2022-08-09T21:49:07.393Z,20.70
2022-08-09T21:53:15.806Z,20.70
2022-08-09T21:57:39.169Z,20.70
2022-08-09T22:02:00.583Z,20.60
2022-08-09T22:06:05.559Z,20.60
2022-08-09T22:10:09.975Z,20.50
2022-08-09T22:14:13.402Z,20.50
2022-08-09T22:18:17.652Z,20.50
2022-08-09T22:22:22.298Z,20.40
2022-08-09T22:26:35.375Z,20.30
2022-08-09T22:30:41.864Z,20.10
2022-08-09T22:35:02.695Z,20.10
2022-08-09T22:39:10.639Z,20.00
2022-08-09T22:44:02.307Z,19.90
2022-08-09T22:48:17.010Z,19.90
2022-08-09T22:52:19.777Z,19.80
2022-08-09T22:56:33.349Z,19.60
2022-08-09T23:00:37.449Z,19.30
2022-08-09T23:04:41.804Z,19.20
2022-08-09T23:08:45.029Z,19.10
2022-08-09T23:12:49.274Z,18.70
2022-08-09T23:16:52.046Z,18.30
2022-08-09T23:20:54.896Z,18.00
2022-08-09T23:24:57.741Z,17.80
2022-08-09T23:29:01.851Z,17.70
2022-08-09T23:33:04.739Z,17.60
2022-08-09T23:37:07.952Z,17.50
2022-08-09T23:41:10.718Z,17.40
2022-08-09T23:45:37.889Z,17.50
2022-08-09T23:49:40.999Z,17.50
2022-08-09T23:53:43.759Z,17.50
2022-08-09T23:57:46.874Z,17.70
